Time;durP1;ratioP1;P1;durP2;ratioP2;P2;SDS_P1;SDS_P2;PMS_P1;PMS_P2;Temp;Humidity;BMP_temperature;BMP_pressure;BME280_temperature;BME280_humidity;BME280_pressure;Samples;Min_cycle;Max_cycle;Signal;HPM_P1;HPM_P2
2023/08/28 00:02:16;;;;;;;0.00;0.00;;;;;;;;;;5055421;28;20076;-78
2023/08/28 00:04:42;;;;;;;0.00;0.00;;;;;;;;;;5054866;28;20443;-78
2023/08/28 00:07:08;;;;;;;0.10;0.00;;;;;;;;;;5039025;28;20045;-78
2023/08/28 00:09:34;;;;;;;0.00;0.00;;;;;;;;;;5055431;28;20123;-78
2023/08/28 00:12:01;;;;;;;0.00;0.00;;;;;;;;;;5055034;28;20365;-79
2023/08/28 00:14:27;;;;;;;0.00;0.00;;;;;;;;;;5055528;28;20040;-79
2023/08/28 00:16:54;;;;;;;0.00;0.00;;;;;;;;;;5038534;28;20045;-78
2023/08/28 00:19:20;;;;;;;1.85;0.08;;;;;;;;;;5056134;28;20041;-78
2023/08/28 00:21:46;;;;;;;0.00;0.00;;;;;;;;;;5054816;28;20051;-78
2023/08/28 00:24:12;;;;;;;0.00;0.00;;;;;;;;;;5051373;28;20049;-78
2023/08/28 00:26:38;;;;;;;0.00;0.00;;;;;;;;;;5054973;28;20041;-78
2023/08/28 00:29:04;;;;;;;0.00;0.00;;;;;;;;;;5055452;28;20080;-78
2023/08/28 00:31:30;;;;;;;0.00;0.00;;;;;;;;;;5055369;28;20041;-78
2023/08/28 00:33:56;;;;;;;0.63;0.10;;;;;;;;;;5055371;28;20530;-78
2023/08/28 00:36:22;;;;;;;0.03;0.00;;;;;;;;;;5054963;28;20388;-79
2023/08/28 00:38:48;;;;;;;0.00;0.00;;;;;;;;;;5038323;28;20049;-78
2023/08/28 00:41:15;;;;;;;0.00;0.00;;;;;;;;;;5054533;28;20469;-78
2023/08/28 00:43:41;;;;;;;0.00;0.00;;;;;;;;;;5038640;28;20041;-78
2023/08/28 00:46:07;;;;;;;0.00;0.00;;;;;;;;;;5055338;28;20045;-78
2023/08/28 00:48:33;;;;;;;0.00;0.00;;;;;;;;;;5055262;28;20465;-78
2023/08/28 00:51:04;;;;;;;0.00;0.00;;;;;;;;;;5038194;28;20420;-79
2023/08/28 00:53:30;;;;;;;0.00;0.00;;;;;;;;;;5055309;28;20045;-78
2023/08/28 00:55:56;;;;;;;0.30;0.10;;;;;;;;;;5038914;28;20076;-78
2023/08/28 00:58:22;;;;;;;0.00;0.00;;;;;;;;;;5054799;28;20049;-78
2023/08/28 01:00:48;;;;;;;0.00;0.00;;;;;;;;;;5054979;28;20080;-78
2023/08/28 01:03:14;;;;;;;0.00;0.00;;;;;;;;;;5055052;28;20473;-78
2023/08/28 01:05:40;;;;;;;0.00;0.00;;;;;;;;;;5056019;28;20090;-78
2023/08/28 01:08:28;;;;;;;0.00;0.00;;;;;;;;;;5054968;28;20131;-78
2023/08/28 01:10:57;;;;;;;0.00;0.00;;;;;;;;;;5054515;28;20135;-78
2023/08/28 01:13:28;;;;;;;0.00;0.00;;;;;;;;;;5054636;28;20056;-78
2023/08/28 01:15:56;;;;;;;0.20;0.10;;;;;;;;;;5054779;28;20114;-78
2023/08/28 01:18:22;;;;;;;0.80;0.00;;;;;;;;;;5054690;28;20047;-78
2023/08/28 01:20:49;;;;;;;0.03;0.00;;;;;;;;;;5037956;28;20473;-79
2023/08/28 01:23:19;;;;;;;0.00;0.00;;;;;;;;;;5054408;28;20128;-78
2023/08/28 01:25:45;;;;;;;0.00;0.00;;;;;;;;;;5054039;28;20529;-79
2023/08/28 01:28:12;;;;;;;0.03;0.00;;;;;;;;;;5038129;28;20045;-78
2023/08/28 01:30:38;;;;;;;0.00;0.00;;;;;;;;;;5054825;28;20132;-78
2023/08/28 01:33:04;;;;;;;0.00;0.00;;;;;;;;;;5054189;28;20071;-78
2023/08/28 01:35:31;;;;;;;0.10;0.10;;;;;;;;;;5054501;28;20033;-78
2023/08/28 01:38:06;;;;;;;0.05;0.00;;;;;;;;;;5036576;28;20040;-78
2023/08/28 01:40:42;;;;;;;0.00;0.00;;;;;;;;;;5054375;28;20063;-79
2023/08/28 01:43:10;;;;;;;1.20;0.10;;;;;;;;;;5054263;28;20045;-78
2023/08/28 01:45:38;;;;;;;0.00;0.00;;;;;;;;;;5054214;28;20040;-79
2023/08/28 01:48:05;;;;;;;0.10;0.00;;;;;;;;;;5054229;28;20049;-78
2023/08/28 01:50:31;;;;;;;0.10;0.10;;;;;;;;;;5036779;28;20044;-79
2023/08/28 01:52:57;;;;;;;0.00;0.00;;;;;;;;;;5053607;28;20084;-79
2023/08/28 01:55:42;;;;;;;0.47;0.47;;;;;;;;;;5054054;28;20048;-78
2023/08/28 01:58:08;;;;;;;0.00;0.00;;;;;;;;;;5053619;28;20499;-78
2023/08/28 02:00:34;;;;;;;0.20;0.05;;;;;;;;;;5053782;28;20041;-78
2023/08/28 02:03:00;;;;;;;0.10;0.05;;;;;;;;;;5053460;28;20045;-78
2023/08/28 02:05:26;;;;;;;0.32;0.00;;;;;;;;;;5053667;28;20070;-79
2023/08/28 02:07:53;;;;;;;0.03;0.00;;;;;;;;;;5020905;28;20048;-78
2023/08/28 02:10:19;;;;;;;0.00;0.00;;;;;;;;;;5053869;28;20041;-78
2023/08/28 02:12:45;;;;;;;0.00;0.00;;;;;;;;;;5053120;28;20037;-79
2023/08/28 02:15:11;;;;;;;0.10;0.00;;;;;;;;;;5053272;28;20036;-78
2023/08/28 02:17:37;;;;;;;0.00;0.00;;;;;;;;;;5036961;28;20037;-78
2023/08/28 02:20:03;;;;;;;0.20;0.10;;;;;;;;;;5052862;28;20041;-79
2023/08/28 02:22:29;;;;;;;0.00;0.00;;;;;;;;;;5053307;28;20076;-79
2023/08/28 02:24:56;;;;;;;0.00;0.00;;;;;;;;;;5052967;28;20052;-78
2023/08/28 02:27:22;;;;;;;0.00;0.00;;;;;;;;;;5037295;28;20128;-78
2023/08/28 02:29:48;;;;;;;0.25;0.10;;;;;;;;;;5053088;28;20393;-80
2023/08/28 02:32:14;;;;;;;0.00;0.00;;;;;;;;;;5052830;28;20045;-78
2023/08/28 02:34:40;;;;;;;0.00;0.00;;;;;;;;;;5053227;28;20037;-79
2023/08/28 02:37:06;;;;;;;0.00;0.00;;;;;;;;;;5053294;28;20045;-79
2023/08/28 02:39:32;;;;;;;0.08;0.00;;;;;;;;;;5019930;28;20097;-78
2023/08/28 02:41:58;;;;;;;0.63;0.43;;;;;;;;;;5036574;28;20477;-78
2023/08/28 02:44:24;;;;;;;0.00;0.00;;;;;;;;;;5053177;28;20117;-79
2023/08/28 02:46:50;;;;;;;0.00;0.00;;;;;;;;;;5036355;28;20056;-78
2023/08/28 02:49:16;;;;;;;0.00;0.00;;;;;;;;;;5052474;28;20045;-78
2023/08/28 02:51:42;;;;;;;0.00;0.00;;;;;;;;;;5052474;28;20461;-79
2023/08/28 02:54:08;;;;;;;0.65;0.25;;;;;;;;;;5053008;28;20487;-79
2023/08/28 02:56:38;;;;;;;0.00;0.00;;;;;;;;;;5052940;28;20041;-78
2023/08/28 02:59:04;;;;;;;0.10;0.00;;;;;;;;;;5054144;28;20045;-79
2023/08/28 03:01:36;;;;;;;0.00;0.00;;;;;;;;;;5052518;28;20048;-79
2023/08/28 03:04:04;;;;;;;0.38;0.00;;;;;;;;;;5052757;28;20095;-78
2023/08/28 03:06:30;;;;;;;0.00;0.00;;;;;;;;;;5052888;28;20128;-78
2023/08/28 03:08:56;;;;;;;0.00;0.00;;;;;;;;;;5053070;28;20040;-79
2023/08/28 03:11:22;;;;;;;0.00;0.00;;;;;;;;;;5052664;28;20067;-79
2023/08/28 03:13:48;;;;;;;0.00;0.00;;;;;;;;;;5035790;28;20044;-79
2023/08/28 03:16:14;;;;;;;0.10;0.10;;;;;;;;;;5052720;28;20427;-79
2023/08/28 03:18:41;;;;;;;0.00;0.00;;;;;;;;;;5053020;28;20083;-79
2023/08/28 03:21:07;;;;;;;0.00;0.00;;;;;;;;;;5035696;28;20037;-79
2023/08/28 03:23:33;;;;;;;0.20;0.00;;;;;;;;;;5052583;28;20037;-79
2023/08/28 03:25:59;;;;;;;0.00;0.00;;;;;;;;;;5052079;28;20543;-79
2023/08/28 03:28:25;;;;;;;0.00;0.00;;;;;;;;;;5035805;28;20052;-79
2023/08/28 03:30:51;;;;;;;0.00;0.00;;;;;;;;;;5035846;28;20480;-79
2023/08/28 03:33:17;;;;;;;0.00;0.00;;;;;;;;;;5052600;28;20052;-79
2023/08/28 03:35:43;;;;;;;0.00;0.00;;;;;;;;;;5052576;28;20056;-79
2023/08/28 03:38:11;;;;;;;0.00;0.00;;;;;;;;;;5035490;28;20159;-79
2023/08/28 03:40:38;;;;;;;0.00;0.00;;;;;;;;;;5052236;28;20051;-79
2023/08/28 03:43:04;;;;;;;0.00;0.00;;;;;;;;;;5036099;28;20059;-78
2023/08/28 03:45:30;;;;;;;0.20;0.10;;;;;;;;;;5052007;28;20073;-79
2023/08/28 03:47:57;;;;;;;0.30;0.00;;;;;;;;;;5035676;28;20052;-79
2023/08/28 03:50:24;;;;;;;0.00;0.00;;;;;;;;;;5035176;28;20045;-79
2023/08/28 03:52:50;;;;;;;0.00;0.00;;;;;;;;;;5051910;28;20076;-79
2023/08/28 03:55:16;;;;;;;0.55;0.00;;;;;;;;;;5052306;28;20041;-79
2023/08/28 03:57:43;;;;;;;0.03;0.00;;;;;;;;;;5035766;28;20128;-79
2023/08/28 04:00:12;;;;;;;0.10;0.10;;;;;;;;;;5052528;28;20095;-79
2023/08/28 04:02:38;;;;;;;0.47;0.40;;;;;;;;;;5056302;28;20045;-79
2023/08/28 04:05:05;;;;;;;0.00;0.00;;;;;;;;;;5056189;28;20067;-79
2023/08/28 04:07:32;;;;;;;0.00;0.00;;;;;;;;;;5023468;28;20041;-79
2023/08/28 04:09:58;;;;;;;0.00;0.00;;;;;;;;;;5023083;28;20048;-79
2023/08/28 04:12:25;;;;;;;0.00;0.00;;;;;;;;;;5055437;28;20091;-78
2023/08/28 04:14:51;;;;;;;0.00;0.00;;;;;;;;;;5056175;28;20477;-79
2023/08/28 04:17:17;;;;;;;0.00;0.00;;;;;;;;;;5055979;28;20124;-79
2023/08/28 04:19:43;;;;;;;0.13;0.00;;;;;;;;;;5039136;28;20045;-79
2023/08/28 04:22:09;;;;;;;0.50;0.22;;;;;;;;;;5038621;28;20043;-79
2023/08/28 04:24:35;;;;;;;1.98;0.00;;;;;;;;;;5055727;28;20137;-79
2023/08/28 04:27:01;;;;;;;0.00;0.00;;;;;;;;;;5055653;28;20052;-79
2023/08/28 04:29:27;;;;;;;0.00;0.00;;;;;;;;;;5055375;28;20095;-79
2023/08/28 04:31:53;;;;;;;0.00;0.00;;;;;;;;;;5055481;28;20053;-79
2023/08/28 04:34:19;;;;;;;0.00;0.00;;;;;;;;;;5055388;28;20059;-80
2023/08/28 04:36:45;;;;;;;0.00;0.00;;;;;;;;;;5054708;28;20040;-79
2023/08/28 04:39:12;;;;;;;0.00;0.00;;;;;;;;;;5038287;28;20083;-79
2023/08/28 04:41:38;;;;;;;0.00;0.00;;;;;;;;;;5055167;28;20088;-79
2023/08/28 04:44:04;;;;;;;0.10;0.00;;;;;;;;;;5055328;28;20106;-79
2023/08/28 04:46:30;;;;;;;0.00;0.00;;;;;;;;;;5038396;28;20045;-78
2023/08/28 04:48:56;;;;;;;0.50;0.22;;;;;;;;;;5038621;28;20045;-79
2023/08/28 04:51:22;;;;;;;0.10;0.10;;;;;;;;;;5054674;28;20083;-79
2023/08/28 04:53:48;;;;;;;0.10;0.10;;;;;;;;;;5054847;28;20090;-79
2023/08/28 04:56:14;;;;;;;0.43;0.25;;;;;;;;;;5038726;28;20107;-80
2023/08/28 04:58:41;;;;;;;0.70;0.40;;;;;;;;;;5054879;28;20045;-80
2023/08/28 05:01:07;;;;;;;0.00;0.00;;;;;;;;;;5054953;28;20378;-79
2023/08/28 05:03:33;;;;;;;0.00;0.00;;;;;;;;;;5054586;28;20049;-79
2023/08/28 05:06:00;;;;;;;0.52;0.13;;;;;;;;;;5054963;28;20076;-80
2023/08/28 05:08:26;;;;;;;0.00;0.00;;;;;;;;;;5054858;28;20574;-79
2023/08/28 05:10:52;;;;;;;0.00;0.00;;;;;;;;;;5054373;28;20045;-80
2023/08/28 05:13:19;;;;;;;0.00;0.00;;;;;;;;;;5037987;28;20049;-80
2023/08/28 05:15:45;;;;;;;0.10;0.10;;;;;;;;;;5055422;28;20086;-80
2023/08/28 05:18:11;;;;;;;0.00;0.00;;;;;;;;;;5054890;28;20045;-80
2023/08/28 05:20:38;;;;;;;0.00;0.00;;;;;;;;;;5037962;28;20384;-79
2023/08/28 05:23:04;;;;;;;0.10;0.00;;;;;;;;;;5054656;28;20389;-79
2023/08/28 05:25:31;;;;;;;0.00;0.00;;;;;;;;;;5054281;28;20087;-80
2023/08/28 05:27:57;;;;;;;0.00;0.00;;;;;;;;;;5037698;28;20045;-80
2023/08/28 05:30:23;;;;;;;0.03;0.03;;;;;;;;;;5054574;28;20086;-79
2023/08/28 05:32:50;;;;;;;0.00;0.00;;;;;;;;;;5054154;28;20073;-79
2023/08/28 05:35:16;;;;;;;0.55;0.00;;;;;;;;;;5054466;28;20437;-79
2023/08/28 05:37:42;;;;;;;1.90;0.00;;;;;;;;;;5054442;28;20095;-79
2023/08/28 05:40:08;;;;;;;0.10;0.00;;;;;;;;;;5054190;28;20138;-80
2023/08/28 05:42:35;;;;;;;0.00;0.00;;;;;;;;;;5054129;28;20045;-80
2023/08/28 05:45:01;;;;;;;0.00;0.00;;;;;;;;;;5054105;28;20136;-79
2023/08/28 05:47:27;;;;;;;0.00;0.00;;;;;;;;;;5037724;28;20037;-80
2023/08/28 05:49:53;;;;;;;0.00;0.00;;;;;;;;;;5037533;28;20045;-79
2023/08/28 05:52:19;;;;;;;0.00;0.00;;;;;;;;;;5053363;28;20465;-80
2023/08/28 05:54:45;;;;;;;0.00;0.00;;;;;;;;;;5053765;28;20048;-80
2023/08/28 05:57:11;;;;;;;0.00;0.00;;;;;;;;;;5053747;28;20095;-80
2023/08/28 05:59:37;;;;;;;0.05;0.03;;;;;;;;;;5054624;28;20047;-81
2023/08/28 06:02:04;;;;;;;0.00;0.00;;;;;;;;;;5053971;28;20127;-79
2023/08/28 06:04:30;;;;;;;0.00;0.00;;;;;;;;;;5053752;28;20044;-80
2023/08/28 06:06:56;;;;;;;0.00;0.00;;;;;;;;;;5053788;28;20037;-79
2023/08/28 06:09:22;;;;;;;0.10;0.00;;;;;;;;;;5045326;28;20048;-80
2023/08/28 06:11:48;;;;;;;0.00;0.00;;;;;;;;;;5053466;28;20037;-80
2023/08/28 06:14:14;;;;;;;0.00;0.00;;;;;;;;;;5037435;28;20099;-80
2023/08/28 06:16:40;;;;;;;0.00;0.00;;;;;;;;;;5037295;28;20051;-80
2023/08/28 06:19:07;;;;;;;0.20;0.00;;;;;;;;;;5053653;28;20041;-79
2023/08/28 06:21:33;;;;;;;0.00;0.00;;;;;;;;;;5052764;28;20053;-79
2023/08/28 06:23:59;;;;;;;0.08;0.00;;;;;;;;;;5052863;28;20370;-78
2023/08/28 06:26:25;;;;;;;0.75;0.10;;;;;;;;;;5056651;28;20534;-79
2023/08/28 06:28:51;;;;;;;0.10;0.10;;;;;;;;;;5056749;28;20041;-79
2023/08/28 06:31:17;;;;;;;0.85;0.10;;;;;;;;;;5056556;28;20457;-79
2023/08/28 06:33:44;;;;;;;0.00;0.00;;;;;;;;;;5056688;28;20037;-79
2023/08/28 06:36:10;;;;;;;0.00;0.00;;;;;;;;;;5074147;28;20066;-79
2023/08/28 06:38:36;;;;;;;0.00;0.00;;;;;;;;;;5056415;28;20098;-80
2023/08/28 06:41:02;;;;;;;0.00;0.00;;;;;;;;;;5056336;28;20113;-80
2023/08/28 06:43:29;;;;;;;0.00;0.00;;;;;;;;;;5039613;28;20119;-79
2023/08/28 06:45:56;;;;;;;0.10;0.10;;;;;;;;;;5056437;28;20040;-79
2023/08/28 06:48:22;;;;;;;0.00;0.00;;;;;;;;;;5055949;28;20052;-79
2023/08/28 06:50:48;;;;;;;0.00;0.00;;;;;;;;;;5055592;28;20048;-79
2023/08/28 06:53:14;;;;;;;0.20;0.10;;;;;;;;;;5055735;28;20048;-79
2023/08/28 06:55:40;;;;;;;0.10;0.00;;;;;;;;;;5056005;28;20048;-79
2023/08/28 06:58:06;;;;;;;0.00;0.00;;;;;;;;;;5039805;28;20046;-79
2023/08/28 07:00:32;;;;;;;0.00;0.00;;;;;;;;;;5056375;28;20345;-79
2023/08/28 07:02:59;;;;;;;0.00;0.00;;;;;;;;;;5056323;28;20072;-80
2023/08/28 07:05:25;;;;;;;0.00;0.00;;;;;;;;;;5056031;28;20392;-78
2023/08/28 07:07:51;;;;;;;0.00;0.00;;;;;;;;;;5033843;28;20037;-78
2023/08/28 07:10:17;;;;;;;0.00;0.00;;;;;;;;;;5036187;28;20048;-78
2023/08/28 07:12:43;;;;;;;0.00;0.00;;;;;;;;;;5035892;28;20041;-78
2023/08/28 07:15:09;;;;;;;0.13;0.10;;;;;;;;;;5036026;28;20127;-78
2023/08/28 07:17:35;;;;;;;0.00;0.00;;;;;;;;;;5036036;28;20431;-78
2023/08/28 07:20:02;;;;;;;0.10;0.00;;;;;;;;;;5053532;28;20049;-78
2023/08/28 07:22:30;;;;;;;0.00;0.00;;;;;;;;;;5053105;28;20052;-78
2023/08/28 07:24:56;;;;;;;0.10;0.10;;;;;;;;;;5053214;28;20055;-78
2023/08/28 07:27:22;;;;;;;0.00;0.00;;;;;;;;;;5035880;28;20105;-78
2023/08/28 07:29:48;;;;;;;3.72;0.70;;;;;;;;;;5019636;28;20040;-78
2023/08/28 07:32:15;;;;;;;0.00;0.00;;;;;;;;;;5035624;28;20116;-78
2023/08/28 07:34:41;;;;;;;0.00;0.00;;;;;;;;;;5035853;28;20036;-78
2023/08/28 07:37:07;;;;;;;0.28;0.03;;;;;;;;;;5039431;28;20041;-78
2023/08/28 07:39:33;;;;;;;0.05;0.00;;;;;;;;;;5039977;28;20488;-78
2023/08/28 07:41:59;;;;;;;0.00;0.00;;;;;;;;;;5039826;28;20130;-78
2023/08/28 07:44:25;;;;;;;0.00;0.00;;;;;;;;;;5040111;28;20122;-78
2023/08/28 07:46:51;;;;;;;0.00;0.00;;;;;;;;;;5039904;28;20102;-78
2023/08/28 07:49:17;;;;;;;0.00;0.00;;;;;;;;;;5039701;28;20086;-78
2023/08/28 07:51:44;;;;;;;0.00;0.00;;;;;;;;;;5038856;28;20279;-78
2023/08/28 07:54:11;;;;;;;0.08;0.08;;;;;;;;;;5039829;28;20044;-78
2023/08/28 07:56:37;;;;;;;0.05;0.03;;;;;;;;;;5039765;28;20033;-78
2023/08/28 07:59:05;;;;;;;0.00;0.00;;;;;;;;;;5006811;28;20048;-78
2023/08/28 08:01:31;;;;;;;0.00;0.00;;;;;;;;;;5022937;28;20102;-78
2023/08/28 08:03:57;;;;;;;0.20;0.00;;;;;;;;;;5023138;28;20049;-78
2023/08/28 08:06:24;;;;;;;0.00;0.00;;;;;;;;;;5039146;28;20080;-78
2023/08/28 08:08:50;;;;;;;0.00;0.00;;;;;;;;;;5039370;28;20075;-78
2023/08/28 08:11:16;;;;;;;0.00;0.00;;;;;;;;;;5039061;28;20043;-77
2023/08/28 08:13:42;;;;;;;0.35;0.00;;;;;;;;;;5039195;28;20358;-78
2023/08/28 08:16:08;;;;;;;0.17;0.17;;;;;;;;;;5042131;28;20123;-77
2023/08/28 08:18:34;;;;;;;0.00;0.00;;;;;;;;;;5075864;28;20048;-78
2023/08/28 08:21:01;;;;;;;0.00;0.00;;;;;;;;;;5026307;28;20064;-79
2023/08/28 08:23:27;;;;;;;0.00;0.00;;;;;;;;;;5018033;28;20045;-78
2023/08/28 08:25:56;;;;;;;0.00;0.00;;;;;;;;;;5018458;28;20060;-77
2023/08/28 08:28:22;;;;;;;0.08;0.00;;;;;;;;;;5018853;28;20050;-78
2023/08/28 08:30:49;;;;;;;0.03;0.00;;;;;;;;;;5036314;28;20052;-78
2023/08/28 08:33:15;;;;;;;0.00;0.00;;;;;;;;;;5002208;28;20041;-78
2023/08/28 08:35:41;;;;;;;0.03;0.00;;;;;;;;;;5018744;28;20045;-77
2023/08/28 08:38:07;;;;;;;0.00;0.00;;;;;;;;;;5002463;28;20091;-78
2023/08/28 08:40:36;;;;;;;0.00;0.00;;;;;;;;;;5019218;28;20045;-78
2023/08/28 08:43:02;;;;;;;0.00;0.00;;;;;;;;;;5019165;28;20059;-77
2023/08/28 08:45:29;;;;;;;0.45;0.17;;;;;;;;;;5018759;28;20491;-78
2023/08/28 08:47:57;;;;;;;0.00;0.00;;;;;;;;;;5017918;28;20432;-78
2023/08/28 08:50:24;;;;;;;0.03;0.00;;;;;;;;;;5018118;28;20037;-78
2023/08/28 08:52:50;;;;;;;0.20;0.05;;;;;;;;;;5018574;28;20124;-78
2023/08/28 08:55:19;;;;;;;0.00;0.00;;;;;;;;;;5018650;28;20052;-78
2023/08/28 08:57:47;;;;;;;0.00;0.00;;;;;;;;;;5018662;28;20052;-78
2023/08/28 09:00:15;;;;;;;0.00;0.00;;;;;;;;;;5018721;28;20049;-78
2023/08/28 09:02:41;;;;;;;0.00;0.00;;;;;;;;;;5018422;28;20084;-78
2023/08/28 09:05:09;;;;;;;0.00;0.00;;;;;;;;;;5018638;28;20144;-78
2023/08/28 09:07:36;;;;;;;0.00;0.00;;;;;;;;;;5019298;28;20045;-78
2023/08/28 09:10:03;;;;;;;0.00;0.00;;;;;;;;;;5018448;28;20562;-77
2023/08/28 09:12:29;;;;;;;0.00;0.00;;;;;;;;;;5018216;28;20076;-78
2023/08/28 09:14:57;;;;;;;0.00;0.00;;;;;;;;;;5001998;28;20092;-78
2023/08/28 09:17:25;;;;;;;0.00;0.00;;;;;;;;;;5002064;28;20096;-77
2023/08/28 09:19:53;;;;;;;0.00;0.00;;;;;;;;;;5018068;28;20041;-77
2023/08/28 09:22:25;;;;;;;0.00;0.00;;;;;;;;;;5035186;28;20045;-77
2023/08/28 09:24:55;;;;;;;0.22;0.08;;;;;;;;;;5001895;28;20053;-78
2023/08/28 09:27:21;;;;;;;0.00;0.00;;;;;;;;;;5001841;28;20535;-78
2023/08/28 09:29:48;;;;;;;0.00;0.00;;;;;;;;;;5017804;28;20045;-78
2023/08/28 09:32:14;;;;;;;0.00;0.00;;;;;;;;;;5017837;28;20045;-78
2023/08/28 09:34:41;;;;;;;0.75;0.10;;;;;;;;;;5018240;28;20592;-78
2023/08/28 09:37:11;;;;;;;0.00;0.00;;;;;;;;;;5001948;28;20385;-78
2023/08/28 09:39:40;;;;;;;0.00;0.00;;;;;;;;;;5018017;28;20381;-78
2023/08/28 09:42:08;;;;;;;0.00;0.00;;;;;;;;;;5017756;28;20128;-78
2023/08/28 09:44:37;;;;;;;0.00;0.00;;;;;;;;;;5018047;28;20048;-78
2023/08/28 09:47:04;;;;;;;0.00;0.00;;;;;;;;;;5017726;28;20091;-78
2023/08/28 09:49:30;;;;;;;0.00;0.00;;;;;;;;;;5017730;28;20553;-78
2023/08/28 09:51:58;;;;;;;0.00;0.00;;;;;;;;;;5017069;28;20046;-78
2023/08/28 09:54:24;;;;;;;0.00;0.00;;;;;;;;;;5017810;28;20049;-78
2023/08/28 09:56:51;;;;;;;0.00;0.00;;;;;;;;;;5017546;28;20046;-78
2023/08/28 09:59:18;;;;;;;0.00;0.00;;;;;;;;;;5016783;28;20072;-78
2023/08/28 10:01:45;;;;;;;0.00;0.00;;;;;;;;;;5017654;28;20393;-78
2023/08/28 10:04:13;;;;;;;0.00;0.00;;;;;;;;;;5017487;28;20474;-78
2023/08/28 10:06:41;;;;;;;0.00;0.00;;;;;;;;;;5017403;28;20080;-78
2023/08/28 10:09:12;;;;;;;0.00;0.00;;;;;;;;;;5017306;28;20099;-78
2023/08/28 10:11:39;;;;;;;0.00;0.00;;;;;;;;;;5017060;28;20486;-78
2023/08/28 10:14:06;;;;;;;0.00;0.00;;;;;;;;;;5017082;28;20045;-78
2023/08/28 10:16:54;;;;;;;0.75;0.10;;;;;;;;;;5017277;28;20053;-78
2023/08/28 10:19:24;;;;;;;0.00;0.00;;;;;;;;;;5017313;28;20148;-78
2023/08/28 10:21:51;;;;;;;0.00;0.00;;;;;;;;;;5016442;28;20037;-78
2023/08/28 10:24:18;;;;;;;0.00;0.00;;;;;;;;;;5017227;28;20033;-78
2023/08/28 10:26:44;;;;;;;0.00;0.00;;;;;;;;;;5017373;28;20061;-79
2023/08/28 10:29:11;;;;;;;0.00;0.00;;;;;;;;;;5034483;28;20477;-78
2023/08/28 10:31:38;;;;;;;0.00;0.00;;;;;;;;;;5016871;28;20037;-78
2023/08/28 10:34:06;;;;;;;0.00;0.00;;;;;;;;;;5034283;28;20132;-78
2023/08/28 10:36:32;;;;;;;0.00;0.00;;;;;;;;;;5016693;28;20049;-78
2023/08/28 10:39:00;;;;;;;0.03;0.00;;;;;;;;;;5016869;28;20048;-78
2023/08/28 10:41:27;;;;;;;0.00;0.00;;;;;;;;;;5034251;28;20064;-78
2023/08/28 10:43:53;;;;;;;0.00;0.00;;;;;;;;;;5016609;28;20104;-78
2023/08/28 10:46:20;;;;;;;0.00;0.00;;;;;;;;;;5016124;28;20091;-80
2023/08/28 10:48:46;;;;;;;0.00;0.00;;;;;;;;;;5016646;28;20045;-79
2023/08/28 10:51:13;;;;;;;0.00;0.00;;;;;;;;;;5015836;28;20057;-78
2023/08/28 10:53:40;;;;;;;0.00;0.00;;;;;;;;;;5016426;28;20092;-78
2023/08/28 10:56:06;;;;;;;0.00;0.00;;;;;;;;;;5017141;28;20041;-78
2023/08/28 10:58:37;;;;;;;0.00;0.00;;;;;;;;;;5016409;28;20156;-78
2023/08/28 11:01:15;;;;;;;0.00;0.00;;;;;;;;;;5016533;28;20041;-78
2023/08/28 11:03:50;;;;;;;0.00;0.00;;;;;;;;;;4999979;28;20072;-78
2023/08/28 11:06:34;;;;;;;0.00;0.00;;;;;;;;;;5033812;28;20049;-78
2023/08/28 11:09:20;;;;;;;0.00;0.00;;;;;;;;;;5033667;28;20385;-78
2023/08/28 11:11:46;;;;;;;0.00;0.00;;;;;;;;;;4999650;28;20389;-78
2023/08/28 11:14:14;;;;;;;0.00;0.00;;;;;;;;;;5016356;28;20045;-78
2023/08/28 11:16:40;;;;;;;0.00;0.00;;;;;;;;;;5016371;28;20041;-78
2023/08/28 11:19:06;;;;;;;0.00;0.00;;;;;;;;;;5016105;28;20041;-78
2023/08/28 11:21:40;;;;;;;0.00;0.00;;;;;;;;;;5015540;28;20481;-78
2023/08/28 11:24:25;;;;;;;0.00;0.00;;;;;;;;;;4999572;28;20049;-79
2023/08/28 11:26:52;;;;;;;0.10;0.10;;;;;;;;;;5015840;28;20037;-79
2023/08/28 11:29:30;;;;;;;0.00;0.00;;;;;;;;;;4999761;28;20465;-79
2023/08/28 11:31:58;;;;;;;0.00;0.00;;;;;;;;;;5015849;28;20041;-78
2023/08/28 11:34:24;;;;;;;0.00;0.00;;;;;;;;;;5046347;28;20097;-78
2023/08/28 11:36:50;;;;;;;0.00;0.00;;;;;;;;;;5055812;28;20044;-78
2023/08/28 11:39:23;;;;;;;0.00;0.00;;;;;;;;;;5055652;28;20036;-79
2023/08/28 11:41:52;;;;;;;0.00;0.00;;;;;;;;;;5055786;28;20106;-78
2023/08/28 11:44:18;;;;;;;0.00;0.00;;;;;;;;;;5073138;28;20468;-78
2023/08/28 11:46:45;;;;;;;0.00;0.00;;;;;;;;;;5055657;28;20074;-78
2023/08/28 11:49:13;;;;;;;0.00;0.00;;;;;;;;;;5055568;28;20051;-79
2023/08/28 11:51:39;;;;;;;0.00;0.00;;;;;;;;;;5054746;28;20044;-79
2023/08/28 11:54:05;;;;;;;0.00;0.00;;;;;;;;;;5055693;28;20467;-79
2023/08/28 11:56:34;;;;;;;0.00;0.00;;;;;;;;;;5055565;28;20464;-79
2023/08/28 11:59:01;;;;;;;0.00;0.00;;;;;;;;;;5029363;28;20049;-79
2023/08/28 12:01:29;;;;;;;0.00;0.00;;;;;;;;;;5035685;28;20538;-79
2023/08/28 12:04:04;;;;;;;0.00;0.00;;;;;;;;;;5035228;28;20419;-79
2023/08/28 12:06:36;;;;;;;0.00;0.00;;;;;;;;;;5035813;28;20045;-79
2023/08/28 12:09:04;;;;;;;0.00;0.00;;;;;;;;;;5035705;28;20186;-78
2023/08/28 12:11:30;;;;;;;0.00;0.00;;;;;;;;;;5035531;28;20041;-79
2023/08/28 12:13:56;;;;;;;0.00;0.00;;;;;;;;;;5035593;28;20041;-79
2023/08/28 12:16:24;;;;;;;0.00;0.00;;;;;;;;;;5019116;28;20040;-79
2023/08/28 12:18:52;;;;;;;0.00;0.00;;;;;;;;;;5035337;28;20079;-79
2023/08/28 12:21:19;;;;;;;0.00;0.00;;;;;;;;;;5035643;28;20037;-79
2023/08/28 12:23:49;;;;;;;0.00;0.00;;;;;;;;;;5039088;28;20076;-79
2023/08/28 12:26:19;;;;;;;0.00;0.00;;;;;;;;;;5038888;28;20420;-79
2023/08/28 12:28:46;;;;;;;0.00;0.00;;;;;;;;;;5056801;28;20374;-79
2023/08/28 12:31:12;;;;;;;0.00;0.00;;;;;;;;;;5038797;28;20037;-79
2023/08/28 12:33:39;;;;;;;0.00;0.00;;;;;;;;;;5039098;28;20045;-79
2023/08/28 12:36:05;;;;;;;0.00;0.00;;;;;;;;;;5038660;28;20522;-79
2023/08/28 12:38:31;;;;;;;0.00;0.00;;;;;;;;;;5039049;28;20041;-79
2023/08/28 12:40:57;;;;;;;0.00;0.00;;;;;;;;;;5022456;28;20045;-79
2023/08/28 12:43:23;;;;;;;0.00;0.00;;;;;;;;;;5022394;28;20053;-79
2023/08/28 12:45:49;;;;;;;0.00;0.00;;;;;;;;;;5038693;28;20484;-79
2023/08/28 12:48:15;;;;;;;0.00;0.00;;;;;;;;;;5022331;28;20070;-79
2023/08/28 12:50:41;;;;;;;0.00;0.00;;;;;;;;;;5038183;28;20068;-80
2023/08/28 12:53:07;;;;;;;0.10;0.00;;;;;;;;;;5022079;28;20044;-79
2023/08/28 12:55:34;;;;;;;0.00;0.00;;;;;;;;;;5022095;28;20059;-79
2023/08/28 12:58:00;;;;;;;0.00;0.00;;;;;;;;;;5038625;28;20045;-79
2023/08/28 13:00:26;;;;;;;0.00;0.00;;;;;;;;;;5038281;28;20041;-79
2023/08/28 13:02:52;;;;;;;0.00;0.00;;;;;;;;;;5038428;28;20044;-79
2023/08/28 13:05:18;;;;;;;0.00;0.00;;;;;;;;;;5038415;28;20048;-79
2023/08/28 13:07:44;;;;;;;0.00;0.00;;;;;;;;;;5022017;28;20045;-79
2023/08/28 13:10:10;;;;;;;0.00;0.00;;;;;;;;;;5038369;28;20041;-79
2023/08/28 13:12:36;;;;;;;0.65;0.32;;;;;;;;;;5038023;28;20124;-79
2023/08/28 13:15:04;;;;;;;0.00;0.00;;;;;;;;;;5038020;28;20041;-79
2023/08/28 13:17:30;;;;;;;0.00;0.00;;;;;;;;;;5038418;28;20051;-79
2023/08/28 13:19:56;;;;;;;0.00;0.00;;;;;;;;;;5038038;28;20043;-79
2023/08/28 13:22:22;;;;;;;0.00;0.00;;;;;;;;;;5037712;28;20140;-79
2023/08/28 13:24:49;;;;;;;0.00;0.00;;;;;;;;;;5021377;28;20049;-78
2023/08/28 13:27:15;;;;;;;0.00;0.00;;;;;;;;;;5038076;28;20103;-79
2023/08/28 13:29:41;;;;;;;0.00;0.00;;;;;;;;;;5037699;28;20051;-80
2023/08/28 13:32:07;;;;;;;0.00;0.00;;;;;;;;;;5037776;28;20048;-80
2023/08/28 13:34:33;;;;;;;0.00;0.00;;;;;;;;;;5037941;28;20044;-79
2023/08/28 13:37:00;;;;;;;0.17;0.17;;;;;;;;;;5037897;28;20040;-80
2023/08/28 13:39:26;;;;;;;0.00;0.00;;;;;;;;;;5037782;28;20044;-79
2023/08/28 13:41:52;;;;;;;0.00;0.00;;;;;;;;;;5037729;28;20041;-79
2023/08/28 13:44:18;;;;;;;0.00;0.00;;;;;;;;;;5037792;28;20049;-79
2023/08/28 13:46:44;;;;;;;0.00;0.00;;;;;;;;;;5037647;28;20048;-79
2023/08/28 13:49:10;;;;;;;0.00;0.00;;;;;;;;;;5021409;28;20049;-79
2023/08/28 13:51:37;;;;;;;0.00;0.00;;;;;;;;;;5036801;28;20123;-79
2023/08/28 13:54:03;;;;;;;0.00;0.00;;;;;;;;;;5037719;28;20128;-79
2023/08/28 13:56:29;;;;;;;0.00;0.00;;;;;;;;;;5055057;28;20049;-80
2023/08/28 13:58:55;;;;;;;0.00;0.00;;;;;;;;;;5037096;28;20045;-79
2023/08/28 14:01:21;;;;;;;0.00;0.00;;;;;;;;;;5004630;28;20094;-79
2023/08/28 14:03:47;;;;;;;0.00;0.00;;;;;;;;;;5037305;28;20128;-79
2023/08/28 14:06:14;;;;;;;0.00;0.00;;;;;;;;;;5037316;28;20102;-79
2023/08/28 14:08:40;;;;;;;0.00;0.00;;;;;;;;;;5037000;28;20041;-79
2023/08/28 14:11:06;;;;;;;0.00;0.00;;;;;;;;;;5020274;28;20098;-80
2023/08/28 14:13:33;;;;;;;0.00;0.00;;;;;;;;;;5036341;28;20095;-79
2023/08/28 14:15:59;;;;;;;0.00;0.00;;;;;;;;;;5037084;28;20071;-79
2023/08/28 14:18:25;;;;;;;0.00;0.00;;;;;;;;;;5037147;28;20040;-79
2023/08/28 14:20:55;;;;;;;0.00;0.00;;;;;;;;;;5036422;28;20052;-79
2023/08/28 14:23:21;;;;;;;0.75;0.13;;;;;;;;;;5037041;28;20097;-79
2023/08/28 14:25:48;;;;;;;0.00;0.00;;;;;;;;;;5019814;28;20096;-79
2023/08/28 14:28:14;;;;;;;0.00;0.00;;;;;;;;;;5013602;28;20381;-79
2023/08/28 14:30:40;;;;;;;0.00;0.00;;;;;;;;;;5014720;28;20081;-79
2023/08/28 14:33:06;;;;;;;0.00;0.00;;;;;;;;;;4997197;28;20482;-78
2023/08/28 14:35:32;;;;;;;0.00;0.00;;;;;;;;;;5014627;28;20046;-78
2023/08/28 14:37:58;;;;;;;0.00;0.00;;;;;;;;;;5013509;28;20136;-78
2023/08/28 14:40:24;;;;;;;0.00;0.00;;;;;;;;;;4996546;28;20042;-78
2023/08/28 14:42:50;;;;;;;0.00;0.00;;;;;;;;;;5013968;28;20053;-79